Time;durP1;ratioP1;P1;durP2;ratioP2;P2;SDS_P1;SDS_P2;PMS_P1;PMS_P2;Temp;Humidity;BMP_temperature;BMP_pressure;BME280_temperature;BME280_humidity;BME280_pressure;Samples;Min_cycle;Max_cycle;Signal;HPM_P1;HPM_P2
2024/04/04 00:00:20;;;;;;;1.45;0.70;;;10.30;99.90;;;;;;5074538;28;20044;-70
2024/04/04 00:02:45;;;;;;;1.50;0.52;;;10.30;99.90;;;;;;5073572;28;20060;-70
2024/04/04 00:05:11;;;;;;;1.17;0.50;;;10.30;99.90;;;;;;5073410;28;20501;-70
2024/04/04 00:07:37;;;;;;;3.15;0.80;;;10.30;99.90;;;;;;5073462;28;20037;-69
2024/04/04 00:10:03;;;;;;;2.15;0.63;;;10.30;99.90;;;;;;5073845;28;20158;-69
2024/04/04 00:12:29;;;;;;;1.73;0.70;;;10.30;99.90;;;;;;5073750;28;20389;-70
2024/04/04 00:14:54;;;;;;;1.98;0.50;;;10.30;99.90;;;;;;5073069;28;20543;-70
2024/04/04 00:17:20;;;;;;;1.45;0.35;;;10.30;99.90;;;;;;5073247;28;20483;-70
2024/04/04 00:19:46;;;;;;;1.83;0.32;;;10.40;99.90;;;;;;5073184;28;20127;-71
2024/04/04 00:22:12;;;;;;;0.63;0.30;;;10.40;99.90;;;;;;5056273;28;20033;-72
2024/04/04 00:24:38;;;;;;;0.98;0.30;;;10.40;99.90;;;;;;5073366;28;20497;-70
2024/04/04 00:27:03;;;;;;;0.90;0.30;;;10.40;99.90;;;;;;5072977;28;20049;-70
2024/04/04 00:29:29;;;;;;;1.25;0.40;;;10.40;99.90;;;;;;5056911;28;20078;-70
2024/04/04 00:31:55;;;;;;;1.48;0.40;;;10.50;99.90;;;;;;5073061;28;20540;-70
2024/04/04 00:34:21;;;;;;;1.13;0.30;;;10.50;99.90;;;;;;5072978;28;20051;-70
2024/04/04 00:36:46;;;;;;;0.90;0.40;;;10.50;99.90;;;;;;5072789;28;20044;-70
2024/04/04 00:39:12;;;;;;;1.85;0.40;;;10.50;99.90;;;;;;5056191;28;20044;-70
2024/04/04 00:41:38;;;;;;;3.15;0.38;;;10.50;99.90;;;;;;5056116;28;20036;-70
2024/04/04 00:44:04;;;;;;;0.70;0.30;;;10.50;99.90;;;;;;5072480;28;20037;-70
2024/04/04 00:46:30;;;;;;;0.60;0.30;;;10.50;99.90;;;;;;5072787;28;20037;-70
2024/04/04 00:48:56;;;;;;;0.47;0.20;;;10.60;99.90;;;;;;5072324;28;20555;-69
2024/04/04 00:51:22;;;;;;;0.75;0.30;;;10.60;99.90;;;;;;5072540;28;20101;-69
2024/04/04 00:53:48;;;;;;;1.08;0.30;;;10.60;99.90;;;;;;5072810;28;20048;-70
2024/04/04 00:56:13;;;;;;;1.20;0.40;;;10.60;99.90;;;;;;5072315;28;20037;-70
2024/04/04 00:58:39;;;;;;;0.90;0.30;;;10.60;99.90;;;;;;5072385;28;20047;-70
2024/04/04 01:01:05;;;;;;;0.65;0.35;;;10.70;99.90;;;;;;5072189;28;20049;-70
2024/04/04 01:03:30;;;;;;;1.92;0.45;;;10.70;99.90;;;;;;5072550;28;20040;-70
2024/04/04 01:05:56;;;;;;;0.85;0.30;;;10.80;99.90;;;;;;5055469;28;20427;-70
2024/04/04 01:08:22;;;;;;;0.52;0.30;;;10.80;99.90;;;;;;5072685;28;20040;-69
2024/04/04 01:10:48;;;;;;;0.70;0.30;;;10.80;99.90;;;;;;5072482;28;20044;-70
2024/04/04 01:13:15;;;;;;;1.60;0.55;;;10.90;99.90;;;;;;5055215;28;20049;-69
2024/04/04 01:15:41;;;;;;;1.85;0.40;;;10.90;99.90;;;;;;5071874;28;20037;-69
2024/04/04 01:18:07;;;;;;;1.55;0.50;;;10.90;99.90;;;;;;5072083;28;20161;-69
2024/04/04 01:20:33;;;;;;;0.98;0.30;;;11.00;99.90;;;;;;5072057;28;20074;-69
2024/04/04 01:22:58;;;;;;;2.05;0.98;;;11.00;99.90;;;;;;5072085;28;20064;-69
2024/04/04 01:25:24;;;;;;;1.60;0.45;;;11.10;99.90;;;;;;5072243;28;20044;-69
2024/04/04 01:27:50;;;;;;;2.22;0.50;;;11.10;99.90;;;;;;5071483;28;20116;-70
2024/04/04 01:30:16;;;;;;;2.10;0.45;;;11.20;99.90;;;;;;5072125;28;20075;-70
2024/04/04 01:32:41;;;;;;;1.27;0.45;;;11.30;99.90;;;;;;5072141;28;20561;-69
2024/04/04 01:35:07;;;;;;;3.03;0.70;;;11.30;99.90;;;;;;5071578;28;20507;-69
2024/04/04 01:37:33;;;;;;;1.30;0.50;;;11.40;99.90;;;;;;5072131;28;20032;-69
2024/04/04 01:39:59;;;;;;;2.08;0.50;;;11.40;99.90;;;;;;5072056;28;20071;-69
2024/04/04 01:42:25;;;;;;;1.38;0.40;;;11.50;99.90;;;;;;5072784;28;20044;-69
2024/04/04 01:44:50;;;;;;;2.05;0.50;;;11.50;99.90;;;;;;5072003;28;20047;-69
2024/04/04 01:47:16;;;;;;;2.15;0.60;;;11.60;99.90;;;;;;5071738;28;20040;-70
2024/04/04 01:49:42;;;;;;;1.88;0.50;;;11.60;99.90;;;;;;5071684;28;20058;-70
2024/04/04 01:52:07;;;;;;;3.70;0.50;;;11.60;99.90;;;;;;5071627;28;20040;-70
2024/04/04 01:54:33;;;;;;;3.08;0.73;;;11.60;99.90;;;;;;5071955;28;20120;-69
2024/04/04 01:56:59;;;;;;;2.25;0.60;;;11.70;99.90;;;;;;5071808;28;20056;-69
2024/04/04 01:59:25;;;;;;;2.33;0.68;;;11.70;99.90;;;;;;5055222;28;20037;-69
2024/04/04 02:01:51;;;;;;;3.78;0.80;;;11.80;99.90;;;;;;5071470;28;20036;-69
2024/04/04 02:04:16;;;;;;;1.50;0.50;;;11.70;99.90;;;;;;5071771;28;20047;-70
2024/04/04 02:06:42;;;;;;;2.17;0.50;;;11.80;99.90;;;;;;5071530;28;20043;-69
2024/04/04 02:09:08;;;;;;;2.47;0.63;;;11.80;99.90;;;;;;5071690;28;20501;-70
2024/04/04 02:11:34;;;;;;;3.60;0.70;;;11.90;99.90;;;;;;5071960;28;20101;-70
2024/04/04 02:14:00;;;;;;;2.42;0.60;;;11.80;99.90;;;;;;5072064;28;20033;-70
2024/04/04 02:16:26;;;;;;;2.47;0.60;;;11.80;99.90;;;;;;5071204;28;20458;-70
2024/04/04 02:18:52;;;;;;;2.72;0.70;;;11.90;99.90;;;;;;5054818;28;20090;-69
2024/04/04 02:21:17;;;;;;;2.58;0.70;;;11.90;99.90;;;;;;5071566;28;20131;-69
2024/04/04 02:23:43;;;;;;;2.55;0.60;;;11.90;99.90;;;;;;5071423;28;20033;-70
2024/04/04 02:26:09;;;;;;;3.10;0.70;;;11.90;99.90;;;;;;5071436;28;20043;-70
2024/04/04 02:28:35;;;;;;;2.65;0.65;;;11.90;99.90;;;;;;5071303;28;20150;-70
2024/04/04 02:31:01;;;;;;;1.85;0.50;;;11.80;99.90;;;;;;5071486;28;20051;-70
2024/04/04 02:33:26;;;;;;;1.90;0.55;;;11.90;99.90;;;;;;5071874;28;20037;-70
2024/04/04 02:35:53;;;;;;;1.88;0.70;;;11.90;99.90;;;;;;5071517;28;20032;-70
2024/04/04 02:38:18;;;;;;;3.63;0.90;;;11.90;99.90;;;;;;5056659;28;20098;-70
2024/04/04 02:40:44;;;;;;;1.75;0.68;;;11.90;99.90;;;;;;5076018;28;20470;-70
2024/04/04 02:43:10;;;;;;;4.38;0.77;;;11.90;99.90;;;;;;5075604;28;20036;-70
2024/04/04 02:45:36;;;;;;;3.97;1.05;;;11.90;99.90;;;;;;5075430;28;20048;-70
2024/04/04 02:48:02;;;;;;;3.47;0.90;;;11.90;99.90;;;;;;5075327;28;20049;-70
2024/04/04 02:50:28;;;;;;;5.03;1.27;;;11.90;99.90;;;;;;5058443;28;20036;-70
2024/04/04 02:52:53;;;;;;;3.95;1.00;;;11.90;99.90;;;;;;5074945;28;20051;-70
2024/04/04 02:55:19;;;;;;;2.53;1.15;;;11.90;99.90;;;;;;5074870;28;20129;-70
2024/04/04 02:57:45;;;;;;;5.90;1.13;;;11.90;99.90;;;;;;5074818;28;20469;-70
2024/04/04 03:00:11;;;;;;;4.68;1.00;;;11.90;99.90;;;;;;5053029;28;20040;-71
2024/04/04 03:02:36;;;;;;;4.85;1.30;;;11.90;99.90;;;;;;5054567;28;20119;-71
2024/04/04 03:05:02;;;;;;;7.32;1.85;;;11.90;99.90;;;;;;5054394;28;20044;-71
2024/04/04 03:07:28;;;;;;;7.63;1.55;;;11.90;99.90;;;;;;5037892;28;20045;-71
2024/04/04 03:09:54;;;;;;;6.70;1.85;;;11.90;99.90;;;;;;5055162;28;20045;-71
2024/04/04 03:12:19;;;;;;;10.43;1.63;;;11.90;99.90;;;;;;5054733;28;20436;-71
2024/04/04 03:14:45;;;;;;;12.32;2.13;;;12.00;99.90;;;;;;5054301;28;20478;-70
2024/04/04 03:17:11;;;;;;;10.05;2.28;;;11.90;99.90;;;;;;5053938;28;20115;-70
2024/04/04 03:19:37;;;;;;;10.10;2.20;;;11.90;99.90;;;;;;5054406;28;20090;-70
2024/04/04 03:22:02;;;;;;;9.18;2.45;;;12.00;99.90;;;;;;5054406;28;20039;-71
2024/04/04 03:24:28;;;;;;;13.02;2.83;;;12.00;99.90;;;;;;5054653;28;20085;-70
2024/04/04 03:26:54;;;;;;;15.70;4.05;;;11.90;99.90;;;;;;5054362;28;20051;-69
2024/04/04 03:29:20;;;;;;;14.43;3.20;;;11.90;99.90;;;;;;5053882;28;20045;-70
2024/04/04 03:31:45;;;;;;;17.73;3.75;;;11.90;99.90;;;;;;5054052;28;20071;-69
2024/04/04 03:34:11;;;;;;;16.35;4.07;;;12.00;99.90;;;;;;5054437;28;20037;-69
2024/04/04 03:36:37;;;;;;;14.10;3.50;;;11.90;99.90;;;;;;5053817;28;20041;-69
2024/04/04 03:39:03;;;;;;;21.13;4.55;;;12.00;99.90;;;;;;5053889;28;20075;-69
2024/04/04 03:41:29;;;;;;;18.35;3.30;;;11.90;99.90;;;;;;5054199;28;20048;-69
2024/04/04 03:43:57;;;;;;;19.70;4.20;;;11.90;99.90;;;;;;5054338;28;20083;-69
2024/04/04 03:46:22;;;;;;;20.85;4.05;;;11.90;99.90;;;;;;5053724;28;20103;-69
2024/04/04 03:48:48;;;;;;;21.08;5.20;;;11.90;99.90;;;;;;5054135;28;20040;-69
2024/04/04 03:51:14;;;;;;;25.73;4.72;;;11.90;99.90;;;;;;5052823;28;20390;-71
2024/04/04 03:53:43;;;;;;;23.00;4.45;;;11.90;99.90;;;;;;5053884;28;20074;-70
2024/04/04 03:56:09;;;;;;;21.40;4.80;;;11.90;99.90;;;;;;5054052;28;20048;-69
2024/04/04 03:58:35;;;;;;;24.77;4.72;;;11.90;99.90;;;;;;5054141;28;20033;-69
2024/04/04 04:01:02;;;;;;;26.75;5.53;;;11.90;99.90;;;;;;5037257;28;20043;-69
2024/04/04 04:03:28;;;;;;;25.50;4.95;;;11.90;99.90;;;;;;5053730;28;20045;-70
2024/04/04 04:05:54;;;;;;;24.98;4.88;;;11.90;99.90;;;;;;5053564;28;20087;-69
2024/04/04 04:08:20;;;;;;;33.88;5.78;;;11.90;99.90;;;;;;5053902;28;20403;-69
2024/04/04 04:10:46;;;;;;;31.33;5.68;;;11.80;99.90;;;;;;5053211;28;20052;-70
2024/04/04 04:13:13;;;;;;;35.75;6.43;;;11.80;99.90;;;;;;5053591;28;20470;-71
2024/04/04 04:15:39;;;;;;;31.40;6.43;;;11.80;99.90;;;;;;5053242;28;20045;-70
2024/04/04 04:18:05;;;;;;;32.33;6.00;;;11.80;99.90;;;;;;5053689;28;20067;-70
2024/04/04 04:23:16;;;;;;;37.60;7.18;;;11.60;99.90;;;;;;5053897;28;20064;-70
2024/04/04 04:25:41;;;;;;;27.75;6.32;;;11.50;99.90;;;;;;5053538;28;20486;-69
2024/04/04 04:28:07;;;;;;;23.88;4.88;;;11.50;99.90;;;;;;5053423;28;20466;-69
2024/04/04 04:30:33;;;;;;;26.27;5.30;;;11.50;99.90;;;;;;5053446;28;20429;-71
2024/04/04 04:33:01;;;;;;;29.15;5.32;;;11.50;99.90;;;;;;5053655;28;20041;-71
2024/04/04 04:35:26;;;;;;;28.73;4.75;;;11.40;99.90;;;;;;5053775;28;20444;-71
2024/04/04 04:37:52;;;;;;;29.17;5.47;;;11.40;99.90;;;;;;5053395;28;20041;-71
2024/04/04 04:40:18;;;;;;;26.40;5.88;;;11.40;99.90;;;;;;5036988;28;20044;-70
2024/04/04 04:42:44;;;;;;;19.70;4.28;;;11.30;99.90;;;;;;5053067;28;20048;-70
2024/04/04 04:45:10;;;;;;;20.15;3.60;;;11.30;99.90;;;;;;5053395;28;20056;-70
2024/04/04 04:47:36;;;;;;;23.85;4.05;;;11.30;99.90;;;;;;5053244;28;20132;-70
2024/04/04 04:50:02;;;;;;;22.27;3.90;;;11.20;99.90;;;;;;5053252;28;20041;-69
2024/04/04 04:52:27;;;;;;;23.83;3.60;;;11.20;99.90;;;;;;5053028;28;20128;-70
2024/04/04 04:54:53;;;;;;;13.10;3.10;;;11.10;99.90;;;;;;5052956;28;20512;-68
2024/04/04 04:57:19;;;;;;;12.85;2.63;;;10.90;99.90;;;;;;5053187;28;20056;-68
2024/04/04 04:59:45;;;;;;;9.35;1.95;;;10.70;99.90;;;;;;5036519;28;20116;-64
2024/04/04 05:02:12;;;;;;;8.55;1.48;;;10.60;99.90;;;;;;5052844;28;20496;-63
2024/04/04 05:04:38;;;;;;;9.05;1.77;;;10.50;99.90;;;;;;5053354;28;20090;-63
2024/04/04 05:07:03;;;;;;;12.57;1.77;;;10.40;99.90;;;;;;5053267;28;20037;-63
2024/04/04 05:09:29;;;;;;;8.93;1.92;;;10.40;99.90;;;;;;5052784;28;20041;-63
2024/04/04 05:11:55;;;;;;;8.52;1.83;;;10.40;99.90;;;;;;5052713;28;20094;-64
2024/04/04 05:14:21;;;;;;;13.35;2.03;;;10.40;99.90;;;;;;5052955;28;20053;-63
2024/04/04 05:16:48;;;;;;;9.13;2.38;;;10.40;99.90;;;;;;5052230;28;20049;-64
2024/04/04 05:19:14;;;;;;;8.27;1.60;;;10.40;99.90;;;;;;5053143;28;20052;-63
2024/04/04 05:21:40;;;;;;;11.02;1.60;;;10.40;99.90;;;;;;5052563;28;20041;-64
2024/04/04 05:24:06;;;;;;;8.57;1.45;;;10.30;99.90;;;;;;5052783;28;20037;-64
2024/04/04 05:26:31;;;;;;;6.47;1.00;;;10.30;99.90;;;;;;5052627;28;20094;-64
2024/04/04 05:28:57;;;;;;;5.05;1.17;;;10.20;99.90;;;;;;5052683;28;20063;-64
2024/04/04 05:31:24;;;;;;;6.70;1.20;;;10.20;99.90;;;;;;5052223;28;20063;-64
2024/04/04 05:33:49;;;;;;;5.18;1.20;;;10.10;99.90;;;;;;5035691;28;20044;-64
2024/04/04 05:36:15;;;;;;;4.57;1.27;;;10.10;99.90;;;;;;5052492;28;20074;-64
2024/04/04 05:38:41;;;;;;;9.80;2.25;;;10.00;99.90;;;;;;5052562;28;20075;-64
2024/04/04 05:41:07;;;;;;;7.70;1.92;;;10.10;99.90;;;;;;5052381;28;20076;-64
2024/04/04 05:43:32;;;;;;;17.67;2.78;;;10.10;99.90;;;;;;5052565;28;20033;-64
2024/04/04 05:45:58;;;;;;;11.85;2.58;;;10.10;99.90;;;;;;5052241;28;20383;-64
2024/04/04 05:48:25;;;;;;;16.58;3.17;;;10.10;99.90;;;;;;5052720;28;20040;-64
2024/04/04 05:50:51;;;;;;;21.73;3.47;;;10.10;99.90;;;;;;5052493;28;20063;-64
2024/04/04 05:53:17;;;;;;;23.52;4.03;;;10.10;99.90;;;;;;5052247;28;20434;-64
2024/04/04 05:55:43;;;;;;;21.92;3.80;;;10.10;99.90;;;;;;5051961;28;20091;-69
2024/04/04 05:58:09;;;;;;;21.02;3.35;;;10.10;99.90;;;;;;5035633;28;20470;-68
2024/04/04 06:00:35;;;;;;;21.35;4.03;;;10.10;99.90;;;;;;5052442;28;20364;-69
2024/04/04 06:03:00;;;;;;;21.10;4.05;;;10.10;99.90;;;;;;5035316;28;20048;-64
2024/04/04 06:05:26;;;;;;;22.77;4.20;;;10.00;99.90;;;;;;5052430;28;20171;-64
2024/04/04 06:07:52;;;;;;;24.58;3.90;;;10.00;99.90;;;;;;5052053;28;20033;-64
2024/04/04 06:10:18;;;;;;;20.25;3.70;;;10.00;99.90;;;;;;5052034;28;20520;-64
2024/04/04 06:12:44;;;;;;;25.63;4.35;;;10.00;99.90;;;;;;5035792;28;20037;-64
2024/04/04 06:15:10;;;;;;;16.70;3.50;;;9.90;99.90;;;;;;5056261;28;20134;-64
2024/04/04 06:17:35;;;;;;;29.33;3.97;;;9.90;99.90;;;;;;5055274;28;20067;-67
2024/04/04 06:20:01;;;;;;;23.98;4.43;;;9.90;99.90;;;;;;5055272;28;20029;-68
2024/04/04 06:22:27;;;;;;;22.25;4.43;;;9.90;99.90;;;;;;5038454;28;20423;-68
2024/04/04 06:24:53;;;;;;;18.23;3.92;;;9.90;99.90;;;;;;5055523;28;20056;-69
2024/04/04 06:27:19;;;;;;;21.65;3.30;;;10.00;99.90;;;;;;5056089;28;20045;-69
2024/04/04 06:29:46;;;;;;;14.93;2.88;;;9.90;99.90;;;;;;5055563;28;20044;-68
2024/04/04 06:32:12;;;;;;;24.55;4.47;;;10.00;99.90;;;;;;5055255;28;20087;-68
2024/04/04 06:34:38;;;;;;;14.02;2.95;;;10.10;99.90;;;;;;5054988;28;20411;-68
2024/04/04 06:37:04;;;;;;;22.20;4.28;;;10.20;99.90;;;;;;5055051;28;20037;-65
2024/04/04 06:39:29;;;;;;;19.90;4.13;;;10.20;99.90;;;;;;5054950;28;20394;-65
2024/04/04 06:41:55;;;;;;;16.35;2.70;;;10.20;99.90;;;;;;5038507;28;20037;-64
2024/04/04 06:44:21;;;;;;;14.25;3.00;;;10.20;99.90;;;;;;5038656;28;20040;-62
2024/04/04 06:46:47;;;;;;;12.38;2.63;;;10.20;99.90;;;;;;5054792;28;20071;-65
2024/04/04 06:49:13;;;;;;;12.23;2.53;;;10.20;99.90;;;;;;5055022;28;20120;-65
2024/04/04 06:51:38;;;;;;;19.77;2.85;;;10.10;99.90;;;;;;5054819;28;20465;-66
2024/04/04 06:54:04;;;;;;;11.80;2.42;;;10.10;99.90;;;;;;5055275;28;20052;-66
2024/04/04 06:56:30;;;;;;;10.85;2.83;;;10.00;99.90;;;;;;5055128;28;20033;-66
2024/04/04 06:58:56;;;;;;;9.32;2.10;;;9.90;99.90;;;;;;5054933;28;20532;-65
2024/04/04 07:01:23;;;;;;;17.38;2.53;;;9.90;99.90;;;;;;5055079;28;20037;-65
2024/04/04 07:03:49;;;;;;;16.00;2.53;;;9.90;99.90;;;;;;5038444;28;20039;-66
2024/04/04 07:06:15;;;;;;;9.40;1.83;;;9.90;99.90;;;;;;5054734;28;20123;-65
2024/04/04 07:08:40;;;;;;;15.88;2.70;;;9.80;99.90;;;;;;5055069;28;20045;-66
2024/04/04 07:11:06;;;;;;;13.68;2.10;;;9.80;99.90;;;;;;5054936;28;20493;-65
2024/04/04 07:13:39;;;;;;;13.55;2.00;;;9.80;99.90;;;;;;5055025;28;20090;-66
2024/04/04 07:16:06;;;;;;;14.90;2.55;;;9.80;99.90;;;;;;5054871;28;20039;-65
2024/04/04 07:18:32;;;;;;;11.88;2.20;;;9.80;99.90;;;;;;5054618;28;20049;-66
2024/04/04 07:20:58;;;;;;;13.20;2.15;;;9.90;99.90;;;;;;5054316;28;20037;-66
2024/04/04 07:23:24;;;;;;;12.98;2.20;;;9.90;99.90;;;;;;5053301;28;20104;-66
2024/04/04 07:25:49;;;;;;;12.82;2.17;;;9.90;99.90;;;;;;5053990;28;20486;-66
2024/04/04 07:28:15;;;;;;;16.52;2.65;;;9.90;99.90;;;;;;5054505;28;20037;-67
2024/04/04 07:30:41;;;;;;;9.52;1.70;;;10.00;99.90;;;;;;5037841;28;20386;-66
2024/04/04 07:33:07;;;;;;;8.10;1.80;;;10.00;99.90;;;;;;5054198;28;20045;-67
2024/04/04 07:35:32;;;;;;;9.52;1.83;;;10.10;99.90;;;;;;5037242;28;20069;-66
2024/04/04 07:37:58;;;;;;;9.00;2.03;;;10.10;99.90;;;;;;5054177;28;20037;-67
2024/04/04 07:40:24;;;;;;;14.75;2.45;;;10.10;99.90;;;;;;5054081;28;20044;-66
2024/04/04 07:42:52;;;;;;;10.70;2.20;;;10.20;99.90;;;;;;5054047;28;20041;-66
2024/04/04 07:45:18;;;;;;;12.00;1.75;;;10.20;99.90;;;;;;5053619;28;20041;-64
2024/04/04 07:47:43;;;;;;;15.68;2.78;;;10.20;99.90;;;;;;5053654;28;20040;-64
2024/04/04 07:50:09;;;;;;;12.57;2.30;;;10.30;99.90;;;;;;5053067;28;20037;-63
2024/04/04 07:52:35;;;;;;;8.85;1.75;;;10.30;99.90;;;;;;5053661;28;20518;-64
2024/04/04 07:55:01;;;;;;;11.68;1.92;;;10.40;99.90;;;;;;5053137;28;20044;-63
2024/04/04 07:57:27;;;;;;;13.80;2.00;;;10.40;99.90;;;;;;5049522;28;20041;-64
2024/04/04 07:59:53;;;;;;;9.35;2.13;;;10.40;99.90;;;;;;5052870;28;20067;-64
2024/04/04 08:02:19;;;;;;;12.93;2.10;;;10.40;99.90;;;;;;5032846;28;20044;-65
2024/04/04 08:04:46;;;;;;;10.63;1.85;;;10.40;99.90;;;;;;5053477;28;20045;-64
2024/04/04 08:07:12;;;;;;;12.50;1.83;;;10.50;99.90;;;;;;5052641;28;20045;-64
2024/04/04 08:09:38;;;;;;;14.80;2.67;;;10.60;99.90;;;;;;5052759;28;20048;-64
2024/04/04 08:12:04;;;;;;;13.10;2.40;;;10.70;99.90;;;;;;5052663;28;20383;-64
2024/04/04 08:14:31;;;;;;;13.32;2.50;;;10.80;99.90;;;;;;5036069;28;20053;-64
2024/04/04 08:16:57;;;;;;;12.40;1.98;;;10.80;99.90;;;;;;5052057;28;20049;-64
2024/04/04 08:19:23;;;;;;;10.13;2.00;;;10.90;99.90;;;;;;5052670;28;20040;-64
2024/04/04 08:21:49;;;;;;;10.57;2.03;;;11.00;99.90;;;;;;5052444;28;20062;-64
2024/04/04 08:24:15;;;;;;;11.63;2.33;;;11.00;99.90;;;;;;5052679;28;20041;-64
2024/04/04 08:26:40;;;;;;;10.85;2.08;;;11.10;99.90;;;;;;5052255;28;20068;-64
2024/04/04 08:29:06;;;;;;;11.57;2.17;;;11.20;99.90;;;;;;5036058;28;20072;-64
2024/04/04 08:31:34;;;;;;;12.88;2.45;;;11.20;99.90;;;;;;5052061;28;20139;-64
2024/04/04 08:34:00;;;;;;;14.70;2.83;;;11.30;99.90;;;;;;5052268;28;20060;-64
2024/04/04 08:36:25;;;;;;;14.35;2.97;;;11.40;99.90;;;;;;5051630;28;20049;-64
2024/04/04 08:38:51;;;;;;;17.15;3.53;;;11.50;99.90;;;;;;5052261;28;20043;-64
2024/04/04 08:41:18;;;;;;;12.50;2.60;;;11.60;99.90;;;;;;5052258;28;20037;-64
2024/04/04 08:43:44;;;;;;;13.75;2.80;;;11.80;99.90;;;;;;5035623;28;20041;-63
2024/04/04 08:46:11;;;;;;;17.25;2.75;;;11.80;99.90;;;;;;5051991;28;20106;-64
2024/04/04 08:48:37;;;;;;;13.35;2.33;;;12.00;99.90;;;;;;5052233;28;20072;-65
2024/04/04 08:51:04;;;;;;;13.45;2.75;;;12.10;99.90;;;;;;5051995;28;20045;-65
2024/04/04 08:53:31;;;;;;;12.50;2.40;;;12.10;99.90;;;;;;5035391;28;20041;-64
2024/04/04 08:55:56;;;;;;;14.32;2.60;;;12.10;99.90;;;;;;5052057;28;20044;-64
2024/04/04 08:58:22;;;;;;;11.63;2.63;;;12.10;99.90;;;;;;5051582;28;20049;-64
2024/04/04 09:00:49;;;;;;;13.52;2.75;;;12.10;99.90;;;;;;5052038;28;20039;-65
2024/04/04 09:03:15;;;;;;;14.15;2.65;;;12.10;99.90;;;;;;5051972;28;20033;-64
2024/04/04 09:05:41;;;;;;;13.18;2.30;;;12.10;99.90;;;;;;5051710;28;20044;-64
2024/04/04 09:08:06;;;;;;;13.52;2.88;;;12.10;99.90;;;;;;5035082;28;20362;-64
2024/04/04 09:10:32;;;;;;;12.55;2.55;;;12.20;99.90;;;;;;5051249;28;20087;-65
2024/04/04 09:12:58;;;;;;;11.15;2.50;;;12.30;99.90;;;;;;5034948;28;20049;-66
2024/04/04 09:15:25;;;;;;;12.60;2.88;;;12.40;99.90;;;;;;5051334;28;20043;-67
2024/04/04 09:17:51;;;;;;;12.30;2.45;;;12.40;99.90;;;;;;5051298;28;20132;-66
2024/04/04 09:20:16;;;;;;;13.80;3.13;;;12.40;99.90;;;;;;5051442;28;20053;-66
2024/04/04 09:22:42;;;;;;;13.60;2.83;;;12.40;99.90;;;;;;5051183;28;20055;-66
2024/04/04 09:25:09;;;;;;;13.48;3.10;;;12.40;99.90;;;;;;5051337;28;20032;-66
2024/04/04 09:27:35;;;;;;;13.43;3.78;;;12.50;99.90;;;;;;5051170;28;20098;-67
2024/04/04 09:30:01;;;;;;;13.38;2.70;;;12.60;99.90;;;;;;5051643;28;20465;-65
2024/04/04 09:32:27;;;;;;;12.20;2.65;;;12.70;99.90;;;;;;5051520;28;20040;-66
2024/04/04 09:34:52;;;;;;;12.63;2.97;;;12.80;99.90;;;;;;5051275;28;20041;-66
2024/04/04 09:37:18;;;;;;;14.05;2.70;;;12.90;99.90;;;;;;5051185;28;20104;-65
2024/04/04 09:39:44;;;;;;;18.23;3.55;;;12.90;99.90;;;;;;5051248;28;20041;-65
2024/04/04 09:42:10;;;;;;;12.63;2.70;;;12.90;99.90;;;;;;5051008;28;20111;-64
2024/04/04 09:44:36;;;;;;;14.07;2.60;;;12.90;99.90;;;;;;5051245;28;20049;-65
2024/04/04 09:47:03;;;;;;;12.52;2.45;;;12.80;99.90;;;;;;5050823;28;20124;-64
2024/04/04 09:49:29;;;;;;;13.18;2.60;;;12.70;99.90;;;;;;5050878;28;20536;-64
2024/04/04 09:51:55;;;;;;;8.05;2.33;;;12.70;99.90;;;;;;5051497;28;20072;-64
2024/04/04 09:54:20;;;;;;;12.98;2.42;;;12.70;99.90;;;;;;5051438;28;20124;-62
2024/04/04 09:56:46;;;;;;;10.27;2.50;;;12.70;99.90;;;;;;5050964;28;20546;-62
2024/04/04 09:59:12;;;;;;;12.95;2.50;;;12.80;99.90;;;;;;5034561;28;20037;-62
2024/04/04 10:01:38;;;;;;;10.18;2.00;;;12.80;99.90;;;;;;5050820;28;20044;-64
2024/04/04 10:04:03;;;;;;;10.93;2.25;;;12.80;99.90;;;;;;5051177;28;20040;-64
2024/04/04 10:06:29;;;;;;;7.85;2.15;;;12.80;99.90;;;;;;5050935;28;20047;-63
2024/04/04 10:08:55;;;;;;;9.35;1.90;;;12.80;99.90;;;;;;5050939;28;20045;-63
2024/04/04 10:11:21;;;;;;;12.32;2.22;;;12.70;99.90;;;;;;5047627;28;20041;-63
2024/04/04 10:13:47;;;;;;;9.52;2.53;;;12.70;99.90;;;;;;5050941;28;20107;-64
2024/04/04 10:16:12;;;;;;;8.57;1.83;;;12.80;99.90;;;;;;5050757;28;20411;-64
2024/04/04 10:18:38;;;;;;;12.93;2.10;;;12.90;99.90;;;;;;5068583;28;20041;-65
2024/04/04 10:21:10;;;;;;;6.32;1.67;;;13.10;99.90;;;;;;5051348;28;20440;-67
2024/04/04 10:23:36;;;;;;;9.07;2.05;;;13.20;99.90;;;;;;5050213;28;20132;-68
2024/04/04 10:26:02;;;;;;;5.78;1.75;;;13.50;99.90;;;;;;5050549;28;20082;-68
2024/04/04 10:28:27;;;;;;;9.98;1.95;;;13.60;99.90;;;;;;5050834;28;20045;-68
2024/04/04 10:30:53;;;;;;;6.32;1.77;;;13.70;99.90;;;;;;5034389;28;20052;-69
2024/04/04 10:33:20;;;;;;;8.07;2.30;;;13.80;99.90;;;;;;5051422;28;20403;-68
2024/04/04 10:35:45;;;;;;;6.20;2.08;;;13.80;99.90;;;;;;5051477;28;20094;-68
2024/04/04 10:38:11;;;;;;;5.22;1.10;;;13.90;99.90;;;;;;5050943;28;20044;-68
2024/04/04 10:40:37;;;;;;;8.55;1.40;;;14.00;99.90;;;;;;5051439;28;20060;-66
2024/04/04 10:43:03;;;;;;;7.70;1.50;;;14.10;99.90;;;;;;5051146;28;20139;-66
2024/04/04 10:45:29;;;;;;;8.07;1.40;;;14.10;99.90;;;;;;5051202;28;20043;-69
2024/04/04 10:47:54;;;;;;;8.35;1.45;;;14.20;99.90;;;;;;5050789;28;20529;-68
2024/04/04 10:50:20;;;;;;;5.88;1.15;;;14.20;99.90;;;;;;5034228;28;20041;-69
2024/04/04 10:52:46;;;;;;;4.00;1.40;;;14.20;99.90;;;;;;5050888;28;20072;-69
2024/04/04 10:55:12;;;;;;;8.65;1.30;;;14.30;99.90;;;;;;5050925;28;20036;-69
2024/04/04 10:57:39;;;;;;;8.63;1.50;;;14.30;99.90;;;;;;5050395;28;20041;-66
2024/04/04 11:00:05;;;;;;;6.68;1.40;;;14.40;99.90;;;;;;5069918;28;20380;-69
2024/04/04 11:02:31;;;;;;;6.30;1.25;;;14.30;99.90;;;;;;5054342;28;20075;-69
2024/04/04 11:04:56;;;;;;;4.78;1.50;;;14.30;99.90;;;;;;5054183;28;20069;-67
2024/04/04 11:07:22;;;;;;;7.28;1.90;;;14.40;99.90;;;;;;5053928;28;20041;-67
2024/04/04 11:09:48;;;;;;;7.60;1.35;;;14.40;99.90;;;;;;5054123;28;20431;-66
2024/04/04 11:12:15;;;;;;;4.50;0.95;;;14.40;99.90;;;;;;5037761;28;20115;-66
2024/04/04 11:14:41;;;;;;;4.78;1.48;;;14.40;99.90;;;;;;5054058;28;20045;-67
2024/04/04 11:17:07;;;;;;;6.45;1.67;;;14.40;99.90;;;;;;5053781;28;20072;-66
2024/04/04 11:19:33;;;;;;;4.28;1.02;;;14.40;99.90;;;;;;5054009;28;20037;-65
2024/04/04 11:21:59;;;;;;;5.00;1.40;;;14.30;99.90;;;;;;5052507;28;20049;-66
2024/04/04 11:24:28;;;;;;;6.97;1.25;;;14.30;99.90;;;;;;5050562;28;20069;-67
2024/04/04 11:26:54;;;;;;;6.60;1.65;;;14.40;99.90;;;;;;5050630;28;20045;-67
2024/04/04 11:29:20;;;;;;;6.45;1.33;;;14.40;99.90;;;;;;5050447;28;20103;-67
2024/04/04 11:31:53;;;;;;;5.18;1.60;;;14.40;99.90;;;;;;5050608;28;20065;-66
2024/04/04 11:34:20;;;;;;;6.43;1.50;;;14.60;99.90;;;;;;5050534;28;20521;-66
2024/04/04 11:36:45;;;;;;;5.00;1.25;;;14.60;99.90;;;;;;5033439;28;20045;-67
2024/04/04 11:39:11;;;;;;;6.80;1.80;;;14.70;99.90;;;;;;5050329;28;20045;-67
2024/04/04 11:41:37;;;;;;;6.75;1.40;;;14.70;99.90;;;;;;5050779;28;20441;-66
2024/04/04 11:44:03;;;;;;;5.15;1.30;;;14.80;99.90;;;;;;5034753;28;20478;-65
2024/04/04 11:46:29;;;;;;;7.38;1.45;;;14.90;99.90;;;;;;5051041;28;20099;-66
2024/04/04 11:48:55;;;;;;;7.43;1.63;;;15.10;99.90;;;;;;5050999;28;20467;-66
2024/04/04 11:51:21;;;;;;;9.63;1.70;;;15.30;99.90;;;;;;5050797;28;20072;-62
2024/04/04 11:53:47;;;;;;;6.28;1.42;;;15.50;99.90;;;;;;5066835;28;20052;-63
2024/04/04 11:56:13;;;;;;;6.57;1.40;;;15.70;99.90;;;;;;5053022;28;20087;-62
2024/04/04 11:58:39;;;;;;;6.03;1.65;;;15.80;99.90;;;;;;5053623;28;20055;-63
2024/04/04 12:01:05;;;;;;;8.77;1.42;;;15.80;99.90;;;;;;5052889;28;20037;-62
2024/04/04 12:03:30;;;;;;;7.10;1.73;;;15.90;99.90;;;;;;5052792;28;20049;-63
2024/04/04 12:05:56;;;;;;;9.13;1.85;;;15.90;99.90;;;;;;5052637;28;20033;-63
2024/04/04 12:08:22;;;;;;;6.20;1.58;;;15.90;99.90;;;;;;5052822;28;20045;-62
2024/04/04 12:10:48;;;;;;;6.40;1.70;;;15.80;99.90;;;;;;5035683;28;20048;-63
2024/04/04 12:13:14;;;;;;;6.75;1.50;;;15.70;99.90;;;;;;5053338;28;20057;-63
2024/04/04 12:15:49;;;;;;;6.95;1.55;;;15.70;99.90;;;;;;5053208;28;20037;-63
2024/04/04 12:20:59;;;;;;;7.60;1.67;;;15.50;99.90;;;;;;5053485;28;20080;-63
2024/04/04 12:23:25;;;;;;;5.93;1.45;;;15.50;99.90;;;;;;5053138;28;20073;-63
2024/04/04 12:25:51;;;;;;;4.80;1.33;;;15.50;99.90;;;;;;5053153;28;20551;-63
2024/04/04 12:28:18;;;;;;;6.72;1.75;;;15.50;99.90;;;;;;5053345;28;20124;-62
2024/04/04 12:30:44;;;;;;;9.30;2.00;;;15.60;99.90;;;;;;5053216;28;20043;-63
2024/04/04 12:33:10;;;;;;;6.95;1.85;;;15.70;99.90;;;;;;5053171;28;20045;-63
2024/04/04 12:35:36;;;;;;;8.88;2.53;;;15.80;99.90;;;;;;5052735;28;20057;-63
2024/04/04 12:38:02;;;;;;;12.38;2.88;;;15.80;99.90;;;;;;5052932;28;20367;-63
2024/04/04 12:40:27;;;;;;;10.23;2.30;;;15.80;99.90;;;;;;5052944;28;20143;-63